Time;durP1;ratioP1;P1;durP2;ratioP2;P2;SDS_P1;SDS_P2;PMS_P1;PMS_P2;Temp;Humidity;BMP_temperature;BMP_pressure;BME280_temperature;BME280_humidity;BME280_pressure;Samples;Min_cycle;Max_cycle;Signal;HPM_P1;HPM_P2
2024/02/24 00:01:20;;;;;;;7.60;2.03;;;;;;;5.87;100.00;100067.84;5028807;28;20207;-69
2024/02/24 00:03:45;;;;;;;5.37;1.80;;;;;;;5.43;100.00;100026.16;5012880;28;20196;-69
2024/02/24 00:06:11;;;;;;;4.90;1.43;;;;;;;5.57;100.00;100043.94;5029992;28;20727;-69
2024/02/24 00:08:36;;;;;;;5.17;1.77;;;;;;;5.96;100.00;100087.22;5031171;28;20184;-69
2024/02/24 00:11:02;;;;;;;6.90;1.80;;;;;;;5.75;100.00;100075.47;5010895;28;20590;-69
2024/02/24 00:13:27;;;;;;;4.37;1.30;;;;;;;5.31;100.00;100001.88;5027691;28;20180;-69
2024/02/24 00:15:56;;;;;;;5.53;1.53;;;;;;;5.78;100.00;100068.97;5031986;28;20643;-69
2024/02/24 00:18:21;;;;;;;5.40;1.80;;;;;;;5.71;100.00;100078.72;5030380;28;20199;-69
2024/02/24 00:20:47;;;;;;;7.43;2.03;;;;;;;5.72;100.00;100078.50;5030905;28;20461;-69
2024/02/24 00:23:12;;;;;;;5.33;1.87;;;;;;;5.31;100.00;100033.78;5030689;28;20658;-69
2024/02/24 00:25:37;;;;;;;6.70;1.53;;;;;;;5.19;100.00;100056.53;5032891;28;20556;-68
2024/02/24 00:28:04;;;;;;;8.00;2.20;;;;;;;5.61;100.00;100076.31;5029811;28;20204;-69
2024/02/24 00:30:30;;;;;;;6.27;2.20;;;;;;;5.27;100.00;100039.69;5024754;28;20466;-69
2024/02/24 00:32:55;;;;;;;6.60;1.60;;;;;;;4.94;100.00;100030.19;5028641;28;20267;-68
2024/02/24 00:35:22;;;;;;;9.93;2.00;;;;;;;5.32;100.00;100080.66;5032777;28;20609;-69
2024/02/24 00:37:47;;;;;;;9.60;1.80;;;;;;;4.79;100.00;99973.56;5013012;28;20246;-69
2024/02/24 00:40:13;;;;;;;5.87;1.67;;;;;;;5.16;100.00;100065.69;5010107;28;20501;-69
2024/02/24 00:42:38;;;;;;;5.53;1.70;;;;;;;5.26;100.00;100061.94;5016744;28;20198;-69
2024/02/24 00:45:04;;;;;;;8.87;1.93;;;;;;;5.18;100.00;100038.94;5031595;28;20180;-68
2024/02/24 00:47:30;;;;;;;6.00;2.13;;;;;;;4.99;100.00;100035.78;5032000;28;20741;-69
2024/02/24 00:49:55;;;;;;;5.83;2.13;;;;;;;5.17;100.00;100038.09;5028099;28;20549;-68
2024/02/24 00:52:21;;;;;;;5.73;1.83;;;;;;;5.08;100.00;100055.16;5014356;28;20203;-69
2024/02/24 00:54:46;;;;;;;5.87;1.80;;;;;;;5.48;100.00;100090.28;5011875;28;20199;-69
2024/02/24 00:57:11;;;;;;;5.80;1.70;;;;;;;4.99;100.00;100034.97;5030936;28;20586;-69
2024/02/24 00:59:37;;;;;;;7.80;2.20;;;;;;;5.04;100.00;100048.56;5030378;28;20257;-69
2024/02/24 01:02:02;;;;;;;7.00;2.20;;;;;;;5.35;100.00;100090.09;5030408;28;20202;-69
2024/02/24 01:04:29;;;;;;;6.10;2.10;;;;;;;5.36;100.00;100073.13;5031710;28;20199;-69
2024/02/24 01:06:54;;;;;;;8.00;2.10;;;;;;;5.48;100.00;100066.34;5012007;28;20188;-69
2024/02/24 01:09:20;;;;;;;7.53;2.10;;;;;;;4.48;100.00;99929.41;5027444;28;20828;-69
2024/02/24 01:11:46;;;;;;;7.93;1.80;;;;;;;5.63;100.00;100108.88;5032324;28;20216;-69
2024/02/24 01:14:11;;;;;;;7.00;2.00;;;;;;;5.66;100.00;100109.34;5024748;28;20188;-68
2024/02/24 01:16:39;;;;;;;8.10;1.90;;;;;;;5.74;100.00;100081.81;5030320;28;20311;-69
2024/02/24 01:19:05;;;;;;;7.87;1.67;;;;;;;5.48;100.00;100044.25;5028252;28;20208;-69
2024/02/24 01:21:30;;;;;;;7.63;2.10;;;;;;;5.05;100.00;99998.88;5007528;28;20545;-69
2024/02/24 01:23:55;;;;;;;6.20;2.10;;;;;;;5.38;100.00;100018.75;5025945;28;20270;-68
2024/02/24 01:26:22;;;;;;;6.10;2.10;;;;;;;5.96;100.00;100128.00;5028288;28;20283;-69
2024/02/24 01:28:50;;;;;;;6.87;1.97;;;;;;;5.83;100.00;100117.97;5026616;28;20271;-69
2024/02/24 01:31:16;;;;;;;7.13;1.80;;;;;;;6.11;100.00;100131.44;5033761;28;20509;-69
2024/02/24 01:33:41;;;;;;;6.13;2.10;;;;;;;5.98;100.00;100151.75;5016761;28;20437;-69
2024/02/24 01:36:06;;;;;;;7.40;2.00;;;;;;;6.01;100.00;100148.72;5031698;28;20272;-69
2024/02/24 01:38:32;;;;;;;5.47;1.90;;;;;;;6.09;100.00;100128.13;5027312;28;20826;-69
2024/02/24 01:40:57;;;;;;;9.07;2.50;;;;;;;6.05;100.00;100140.19;5026442;28;20823;-69
2024/02/24 01:43:23;;;;;;;7.87;2.10;;;;;;;5.95;100.00;100141.47;5012917;28;20181;-69
2024/02/24 01:45:48;;;;;;;6.23;1.93;;;;;;;5.11;100.00;100053.97;5031896;28;20326;-69
2024/02/24 01:48:14;;;;;;;6.30;2.00;;;;;;;5.52;100.00;100136.78;5029800;28;20642;-68
2024/02/24 01:50:40;;;;;;;8.90;2.63;;;;;;;5.53;100.00;100169.53;5016973;28;20233;-69
2024/02/24 01:53:07;;;;;;;6.00;2.30;;;;;;;5.39;100.00;100083.41;5027691;28;20652;-69
2024/02/24 01:55:33;;;;;;;6.90;2.10;;;;;;;5.16;100.00;100078.16;5030624;28;20550;-69
2024/02/24 01:58:02;;;;;;;8.23;2.30;;;;;;;5.65;100.00;100162.75;5028290;28;20477;-69
2024/02/24 02:00:27;;;;;;;8.70;1.97;;;;;;;5.29;100.00;100112.91;5018618;28;20203;-69
2024/02/24 02:02:55;;;;;;;6.60;1.97;;;;;;;5.12;100.00;100112.28;5030342;28;20492;-69
2024/02/24 02:05:21;;;;;;;5.77;2.30;;;;;;;4.76;100.00;100038.50;5036025;28;20196;-69
2024/02/24 02:07:46;;;;;;;6.27;2.03;;;;;;;5.20;100.00;100160.03;5015091;28;20473;-69
2024/02/24 02:10:12;;;;;;;6.37;2.00;;;;;;;4.89;100.00;100082.22;5028577;28;20204;-69
2024/02/24 02:12:37;;;;;;;7.30;2.03;;;;;;;4.99;100.00;100139.44;5010296;28;20198;-69
2024/02/24 02:15:03;;;;;;;6.80;1.93;;;;;;;5.03;100.00;100105.34;5030760;28;20185;-69
2024/02/24 02:17:29;;;;;;;7.10;2.43;;;;;;;4.78;100.00;100072.88;5017712;28;20216;-69
2024/02/24 02:20:01;;;;;;;7.53;2.10;;;;;;;4.92;100.00;100135.88;5028711;28;22766;-69
2024/02/24 02:22:26;;;;;;;5.83;2.30;;;;;;;4.68;100.00;100102.34;5032317;28;20442;-69
2024/02/24 02:24:52;;;;;;;8.27;2.40;;;;;;;4.49;100.00;100108.16;5029388;28;20443;-69
2024/02/24 02:27:17;;;;;;;6.70;2.50;;;;;;;4.51;100.00;100088.38;5032570;28;20192;-69
2024/02/24 02:29:42;;;;;;;6.20;2.40;;;;;;;4.91;100.00;100158.13;5027646;28;20217;-69
2024/02/24 02:32:08;;;;;;;5.73;2.13;;;;;;;4.05;100.00;100010.53;5030715;28;20262;-69
2024/02/24 02:34:34;;;;;;;7.90;2.20;;;;;;;4.80;100.00;100139.13;5029807;28;20192;-69
2024/02/24 02:36:59;;;;;;;6.60;2.20;;;;;;;4.65;100.00;100125.78;5030411;28;20216;-69
2024/02/24 02:39:25;;;;;;;8.17;2.70;;;;;;;4.69;100.00;100117.28;5014089;28;20227;-69
2024/02/24 02:41:51;;;;;;;13.10;2.13;;;;;;;4.74;100.00;100160.09;5028226;28;20650;-69
2024/02/24 02:44:16;;;;;;;8.47;2.40;;;;;;;4.68;100.00;100149.34;5026888;28;20434;-69
2024/02/24 02:46:48;;;;;;;7.13;2.40;;;;;;;4.59;100.00;100135.28;5029957;28;20680;-68
2024/02/24 02:49:15;;;;;;;7.33;2.40;;;;;;;4.27;100.00;100080.56;5031910;28;20239;-69
2024/02/24 02:51:40;;;;;;;6.60;2.23;;;;;;;4.45;100.00;100077.63;5030971;28;20455;-69
2024/02/24 02:54:08;;;;;;;6.93;2.13;;;;;;;4.23;100.00;100076.63;5030279;28;20456;-69
2024/02/24 02:56:34;;;;;;;11.07;2.37;;;;;;;4.58;100.00;100154.06;5014381;28;20216;-69
2024/02/24 02:58:59;;;;;;;7.37;2.97;;;;;;;4.48;100.00;100117.09;5029821;28;20500;-68
2024/02/24 03:01:25;;;;;;;6.43;2.47;;;;;;;3.94;100.00;99995.88;5033519;28;20204;-69
2024/02/24 03:03:50;;;;;;;6.93;2.40;;;;;;;4.42;100.00;100096.56;5029997;28;20258;-69
2024/02/24 03:06:17;;;;;;;7.87;2.50;;;;;;;4.90;100.00;100153.81;5029139;28;20215;-69
2024/02/24 03:08:42;;;;;;;7.07;2.67;;;;;;;4.72;100.00;100118.78;5032342;28;20183;-69
2024/02/24 03:11:17;;;;;;;8.20;2.47;;;;;;;4.69;100.00;100100.53;5012238;28;20839;-69
2024/02/24 03:13:43;;;;;;;6.00;2.40;;;;;;;4.73;100.00;100126.53;5031177;28;20191;-69
2024/02/24 03:16:08;;;;;;;7.37;2.80;;;;;;;4.22;100.00;100036.00;5020170;28;20945;-69
2024/02/24 03:18:34;;;;;;;8.17;2.50;;;;;;;4.58;100.00;100051.31;5011934;28;20445;-69
2024/02/24 03:20:59;;;;;;;5.70;2.20;;;;;;;5.18;100.00;100134.66;5025551;28;20261;-69
2024/02/24 03:23:24;;;;;;;6.77;2.37;;;;;;;4.56;100.00;100082.53;5031117;28;20267;-69
2024/02/24 03:25:50;;;;;;;7.70;2.27;;;;;;;4.82;100.00;100126.47;5029298;28;20395;-69
2024/02/24 03:28:16;;;;;;;5.63;2.10;;;;;;;4.86;100.00;100127.75;5028210;28;20213;-69
2024/02/24 03:30:43;;;;;;;7.50;1.93;;;;;;;4.98;100.00;100166.22;5029313;28;20252;-69
2024/02/24 03:33:08;;;;;;;6.83;1.97;;;;;;;5.14;100.00;100178.53;5034608;28;20441;-69
2024/02/24 03:35:36;;;;;;;6.47;1.80;;;;;;;4.69;100.00;100127.91;5029531;28;20743;-69
2024/02/24 03:38:01;;;;;;;5.20;1.90;;;;;;;4.73;100.00;100154.94;5034895;28;20208;-69
2024/02/24 03:40:27;;;;;;;7.20;1.90;;;;;;;4.88;100.00;100166.44;5010037;28;20459;-69
2024/02/24 03:42:52;;;;;;;7.03;2.20;;;;;;;4.52;100.00;100123.72;5031246;28;20180;-69
2024/02/24 03:45:17;;;;;;;5.73;2.03;;;;;;;4.47;100.00;100137.53;5030882;28;20187;-69
2024/02/24 03:47:43;;;;;;;7.50;2.53;;;;;;;4.93;100.00;100221.72;5014610;28;20215;-69
2024/02/24 03:50:09;;;;;;;7.27;2.20;;;;;;;4.85;100.00;100222.59;5011231;28;20258;-68
2024/02/24 03:52:34;;;;;;;5.90;1.77;;;;;;;4.53;100.00;100154.59;5003107;28;20561;-68
2024/02/24 03:54:59;;;;;;;6.23;1.93;;;;;;;4.32;100.00;100131.31;5014157;28;20582;-69
2024/02/24 03:57:26;;;;;;;4.87;1.73;;;;;;;5.00;100.00;100241.28;5014427;28;20195;-68
2024/02/24 03:59:52;;;;;;;5.60;2.00;;;;;;;4.58;100.00;100176.13;5033982;28;20282;-68
2024/02/24 04:02:17;;;;;;;8.80;1.60;;;;;;;5.14;100.00;100252.97;5031817;28;20579;-69
2024/02/24 04:04:42;;;;;;;5.03;1.70;;;;;;;4.91;100.00;100290.19;5015223;28;20184;-68
2024/02/24 04:07:08;;;;;;;5.57;1.80;;;;;;;4.96;100.00;100275.34;5013443;28;20187;-68
2024/02/24 04:09:33;;;;;;;7.40;1.63;;;;;;;4.72;100.00;100246.28;5017454;28;20662;-69
2024/02/24 04:11:59;;;;;;;5.37;2.20;;;;;;;4.52;100.00;100192.78;5030546;28;20182;-68
2024/02/24 04:14:24;;;;;;;7.23;1.80;;;;;;;5.10;100.00;100291.56;5015133;28;20275;-69
2024/02/24 04:16:49;;;;;;;6.00;1.70;;;;;;;4.26;100.00;100140.00;5033324;28;20211;-68
2024/02/24 04:19:15;;;;;;;5.90;1.97;;;;;;;5.04;100.00;100290.44;5009218;28;20183;-68
2024/02/24 04:21:40;;;;;;;7.40;2.00;;;;;;;5.04;100.00;100303.72;5014357;28;20181;-68
2024/02/24 04:24:07;;;;;;;6.30;1.70;;;;;;;4.82;100.00;100292.06;5034736;28;20180;-68
2024/02/24 04:26:33;;;;;;;5.60;1.97;;;;;;;5.02;100.00;100292.44;5019106;28;20204;-69
2024/02/24 04:28:58;;;;;;;7.30;2.10;;;;;;;4.85;100.00;100299.66;5034494;28;20488;-68
2024/02/24 04:31:23;;;;;;;6.90;2.30;;;;;;;4.50;100.00;100245.22;5030932;28;20244;-68
2024/02/24 04:33:49;;;;;;;7.80;2.20;;;;;;;4.76;100.00;100253.72;5015058;28;20181;-68
2024/02/24 04:36:14;;;;;;;7.13;2.13;;;;;;;4.77;100.00;100291.75;5006032;28;20191;-69
2024/02/24 04:38:40;;;;;;;7.53;2.30;;;;;;;4.97;100.00;100316.03;5029886;28;20230;-68
2024/02/24 04:41:05;;;;;;;6.30;2.27;;;;;;;4.48;100.00;100265.81;5032994;28;20207;-68
2024/02/24 04:43:30;;;;;;;7.03;2.10;;;;;;;4.56;100.00;100313.59;5034424;28;20767;-68
2024/02/24 04:45:56;;;;;;;7.03;2.67;;;;;;;4.41;100.00;100270.19;5008144;28;20210;-69
2024/02/24 04:48:21;;;;;;;6.50;2.43;;;;;;;4.04;100.00;100109.75;5010541;28;20176;-69
2024/02/24 04:50:47;;;;;;;5.57;2.43;;;;;;;4.55;100.00;100240.25;5028910;28;20212;-68
2024/02/24 04:53:12;;;;;;;8.83;2.67;;;;;;;4.27;100.00;100247.81;5030480;28;20207;-68
2024/02/24 04:55:40;;;;;;;8.40;3.33;;;;;;;4.54;100.00;100257.16;5015606;28;20175;-68
2024/02/24 04:58:06;;;;;;;7.43;2.50;;;;;;;4.53;100.00;100215.66;5032031;28;20227;-68
2024/02/24 05:00:31;;;;;;;6.60;2.47;;;;;;;4.39;100.00;100211.91;5029952;28;20466;-68
2024/02/24 05:02:57;;;;;;;7.33;2.90;;;;;;;3.74;100.00;100137.91;5023462;28;20199;-68
2024/02/24 05:05:22;;;;;;;7.00;2.40;;;;;;;3.77;100.00;100158.78;5031522;28;20234;-68
2024/02/24 05:07:48;;;;;;;7.03;3.00;;;;;;;4.49;100.00;100244.41;5036171;28;20534;-69
2024/02/24 05:10:13;;;;;;;6.87;2.57;;;;;;;4.30;100.00;100236.84;5035360;28;20246;-68
2024/02/24 05:12:47;;;;;;;6.77;2.57;;;;;;;3.77;100.00;100158.78;5016137;28;20191;-68
2024/02/24 05:15:14;;;;;;;6.20;2.93;;;;;;;4.11;100.00;100239.91;5016508;28;20180;-68
2024/02/24 05:17:39;;;;;;;11.30;2.80;;;;;;;4.36;100.00;100235.34;5032908;28;20525;-68
2024/02/24 05:20:07;;;;;;;7.20;2.83;;;;;;;4.06;100.00;100235.13;5032264;28;20462;-69
2024/02/24 05:22:32;;;;;;;7.60;3.00;;;;;;;3.98;100.00;100203.31;5030127;28;20188;-68
2024/02/24 05:24:58;;;;;;;7.30;3.40;;;;;;;4.04;100.00;100227.34;5033978;28;20446;-68
2024/02/24 05:27:23;;;;;;;7.07;3.20;;;;;;;3.45;100.00;100186.22;5034548;28;20181;-68
2024/02/24 05:29:48;;;;;;;6.33;2.30;;;;;;;4.32;100.00;100247.31;5037361;28;20207;-68
2024/02/24 05:32:16;;;;;;;6.27;2.80;;;;;;;4.10;100.00;100235.63;5025192;28;20654;-68
2024/02/24 05:34:42;;;;;;;7.10;2.60;;;;;;;3.82;100.00;100186.47;5036610;28;20186;-68
2024/02/24 05:37:07;;;;;;;8.70;3.17;;;;;;;3.91;100.00;100211.16;5036655;28;20846;-69
2024/02/24 05:39:33;;;;;;;7.20;2.77;;;;;;;3.56;100.00;100156.72;5014909;28;20203;-68
2024/02/24 05:41:58;;;;;;;7.97;2.60;;;;;;;3.56;100.00;100159.34;5033440;28;20551;-68
2024/02/24 05:44:24;;;;;;;5.63;2.77;;;;;;;3.63;100.00;100147.88;5017545;28;20192;-68
2024/02/24 05:46:50;;;;;;;6.10;3.30;;;;;;;3.48;100.00;100125.72;5017498;28;20176;-69
2024/02/24 05:49:15;;;;;;;7.20;3.00;;;;;;;3.76;100.00;100178.34;5010305;28;20937;-69
2024/02/24 05:51:43;;;;;;;6.90;2.83;;;;;;;4.04;100.00;100218.56;5015482;28;20181;-69
2024/02/24 05:54:09;;;;;;;8.50;3.27;;;;;;;3.27;100.00;100131.59;5016348;28;20189;-68
2024/02/24 05:56:34;;;;;;;8.63;3.50;;;;;;;3.47;100.00;100125.88;5012204;28;20451;-68
2024/02/24 05:59:00;;;;;;;6.77;3.37;;;;;;;3.74;100.00;100133.44;5029857;28;20184;-68
2024/02/24 06:01:26;;;;;;;9.33;3.33;;;;;;;3.57;100.00;100142.44;5036298;28;20251;-68
2024/02/24 06:03:51;;;;;;;8.70;3.70;;;;;;;3.65;100.00;100146.91;5017914;28;20192;-68
2024/02/24 06:06:18;;;;;;;7.50;3.10;;;;;;;2.94;100.00;100022.16;5034376;28;20222;-68
2024/02/24 06:08:43;;;;;;;6.53;2.87;;;;;;;4.08;100.00;100196.00;5031631;28;20180;-68
2024/02/24 06:11:09;;;;;;;6.63;3.57;;;;;;;3.59;100.00;100172.28;5036506;28;20454;-68
2024/02/24 06:13:34;;;;;;;9.03;3.43;;;;;;;3.31;100.00;100127.59;5016098;28;20183;-68
2024/02/24 06:15:59;;;;;;;8.97;3.43;;;;;;;3.51;100.00;100140.47;5034791;28;20187;-68
2024/02/24 06:18:25;;;;;;;7.10;3.20;;;;;;;3.92;100.00;100210.13;5029303;28;20316;-68
2024/02/24 06:20:52;;;;;;;6.37;3.53;;;;;;;3.95;100.00;100206.31;5032644;28;20201;-68
2024/02/24 06:23:17;;;;;;;8.67;3.90;;;;;;;4.07;100.00;100236.78;5015606;28;20234;-68
2024/02/24 06:25:43;;;;;;;7.23;3.50;;;;;;;3.38;100.00;100119.78;5030265;28;20853;-68
2024/02/24 06:28:10;;;;;;;7.60;3.40;;;;;;;4.11;100.00;100203.59;5028443;28;20195;-68
2024/02/24 06:30:37;;;;;;;9.50;3.57;;;;;;;3.97;100.00;100215.75;5012689;28;20682;-69
2024/02/24 06:33:03;;;;;;;9.70;3.60;;;;;;;3.65;100.00;100163.63;5013320;28;21101;-68
2024/02/24 06:35:29;;;;;;;9.13;3.67;;;;;;;3.48;100.00;100104.50;5034213;28;20576;-68
2024/02/24 06:37:54;;;;;;;10.50;4.07;;;;;;;3.16;100.00;100071.81;5032814;28;20554;-68
2024/02/24 06:40:19;;;;;;;7.13;3.60;;;;;;;3.67;100.00;100142.22;5033061;28;20294;-68
2024/02/24 06:42:45;;;;;;;7.43;3.27;;;;;;;4.25;100.00;100228.59;5034613;28;20188;-68
2024/02/24 06:45:10;;;;;;;7.10;3.60;;;;;;;3.92;100.00;100196.88;5038325;28;20191;-71
2024/02/24 06:47:35;;;;;;;9.67;3.83;;;;;;;3.96;100.00;100149.59;5032597;28;20242;-69
2024/02/24 06:50:01;;;;;;;9.40;3.97;;;;;;;4.19;100.00;100232.75;5025799;28;20526;-69
2024/02/24 06:52:26;;;;;;;6.87;3.27;;;;;;;4.04;100.00;100168.13;5033835;28;20477;-69
2024/02/24 06:54:52;;;;;;;7.80;3.63;;;;;;;4.05;100.00;100185.69;5032246;28;20176;-69
2024/02/24 06:57:17;;;;;;;7.70;3.90;;;;;;;3.52;100.00;100097.88;5033324;28;20570;-69
2024/02/24 06:59:47;;;;;;;9.97;6.30;;;;;;;4.44;100.00;100245.94;5033440;28;20745;-69
2024/02/24 07:02:13;;;;;;;12.90;3.63;;;;;;;4.40;100.00;100265.88;5030008;28;20610;-68
2024/02/24 07:04:41;;;;;;;7.90;4.73;;;;;;;4.49;100.00;100254.22;5028249;28;20435;-69
2024/02/24 07:07:07;;;;;;;8.87;5.07;;;;;;;4.15;100.00;100204.09;5034984;28;20853;-69
2024/02/24 07:09:33;;;;;;;10.27;5.20;;;;;;;4.60;100.00;100259.16;5029746;28;20423;-69
2024/02/24 07:11:58;;;;;;;10.20;4.93;;;;;;;3.88;100.00;100190.25;5030952;28;20476;-69
2024/02/24 07:14:23;;;;;;;9.20;4.60;;;;;;;4.13;100.00;100183.00;5035048;28;20180;-69
2024/02/24 07:16:49;;;;;;;8.80;5.10;;;;;;;3.91;100.00;100136.03;5030146;28;20277;-69
2024/02/24 07:19:14;;;;;;;7.83;4.47;;;;;;;4.22;100.00;100194.41;5013498;28;20177;-69
2024/02/24 07:21:42;;;;;;;10.30;5.40;;;;;;;4.70;100.00;100312.06;5014123;28;20204;-69
2024/02/24 07:24:08;;;;;;;9.03;4.77;;;;;;;4.80;100.00;100301.19;5031952;28;20195;-69
2024/02/24 07:26:41;;;;;;;12.10;6.20;;;;;;;4.69;100.00;100297.13;5032227;28;21052;-69
2024/02/24 07:29:06;;;;;;;8.40;4.93;;;;;;;4.43;100.00;100254.91;5031505;28;20542;-69
2024/02/24 07:31:32;;;;;;;9.37;4.60;;;;;;;4.26;100.00;100232.91;5029809;28;20461;-69
2024/02/24 07:33:57;;;;;;;9.40;4.87;;;;;;;3.82;100.00;100194.41;5032123;28;20185;-69
2024/02/24 07:36:24;;;;;;;11.90;6.20;;;;;;;4.42;100.00;100254.06;5014348;28;20269;-69
2024/02/24 07:38:49;;;;;;;9.70;4.80;;;;;;;4.96;100.00;100319.72;5029817;28;20192;-69
2024/02/24 07:41:15;;;;;;;6.90;4.20;;;;;;;4.81;100.00;100313.50;5034514;28;20443;-69
2024/02/24 07:43:41;;;;;;;8.73;4.37;;;;;;;4.10;100.00;100225.81;5030685;28;20184;-69
2024/02/24 07:46:06;;;;;;;10.13;5.10;;;;;;;4.82;100.00;100344.38;5029848;28;20562;-69
2024/02/24 07:48:32;;;;;;;9.97;4.77;;;;;;;4.61;100.00;100321.06;5028495;28;20442;-68
2024/02/24 07:50:57;;;;;;;9.27;4.30;;;;;;;3.88;100.00;100177.00;5022797;28;20214;-68
2024/02/24 07:53:22;;;;;;;9.10;4.80;;;;;;;3.96;100.00;100240.63;5028127;28;20184;-68
2024/02/24 07:55:48;;;;;;;10.20;4.63;;;;;;;4.94;100.00;100354.44;5029843;28;20196;-68
2024/02/24 07:58:13;;;;;;;8.20;4.53;;;;;;;4.38;100.00;100287.28;5013984;28;20254;-68
2024/02/24 08:00:39;;;;;;;8.10;4.50;;;;;;;4.62;100.00;100312.91;5031730;28;20207;-68
2024/02/24 08:03:04;;;;;;;9.30;4.20;;;;;;;4.44;100.00;100264.53;5025275;28;20184;-68
2024/02/24 08:05:30;;;;;;;9.40;4.63;;;;;;;4.88;100.00;100349.00;5034862;28;20267;-68
2024/02/24 08:07:55;;;;;;;8.70;4.87;;;;;;;4.23;100.00;100257.97;5031789;28;20222;-68
2024/02/24 08:10:21;;;;;;;9.10;4.83;;;;;;;4.32;100.00;100273.88;5009603;28;20595;-67
2024/02/24 08:12:46;;;;;;;8.73;4.83;;;;;;;4.72;100.00;100331.31;5030041;28;20187;-68
2024/02/24 08:15:12;;;;;;;8.30;5.10;;;;;;;4.07;100.00;100253.53;5024372;28;20651;-68
2024/02/24 08:17:38;;;;;;;10.83;4.80;;;;;;;4.96;100.00;100346.28;5029058;28;20216;-68
2024/02/24 08:20:06;;;;;;;10.20;5.03;;;;;;;4.56;100.00;100284.38;5018136;28;20212;-68
2024/02/24 08:22:31;;;;;;;8.30;4.40;;;;;;;5.00;100.00;100344.94;5021308;28;20813;-68
2024/02/24 08:24:57;;;;;;;9.00;4.97;;;;;;;4.88;100.00;100306.47;5014206;28;20956;-68
2024/02/24 08:27:22;;;;;;;8.53;4.50;;;;;;;4.96;100.00;100357.75;5002433;28;20199;-69
2024/02/24 08:29:48;;;;;;;8.50;5.40;;;;;;;5.01;100.00;100354.59;5026046;28;20203;-68
2024/02/24 08:32:13;;;;;;;12.10;4.73;;;;;;;4.90;100.00;100329.22;5007527;28;20625;-68
2024/02/24 08:34:40;;;;;;;9.20;4.30;;;;;;;4.62;100.00;100302.28;5024618;28;20646;-69
2024/02/24 08:37:05;;;;;;;8.80;4.47;;;;;;;4.90;100.00;100302.63;5024396;28;20295;-69
2024/02/24 08:39:31;;;;;;;9.40;4.87;;;;;;;5.21;100.00;100337.19;5025480;28;20557;-68
2024/02/24 08:41:56;;;;;;;10.63;4.27;;;;;;;4.19;100.00;100174.34;5024230;28;20209;-68
2024/02/24 08:44:22;;;;;;;16.03;4.83;;;;;;;5.25;100.00;100336.81;5027760;28;20656;-68
2024/02/24 08:46:47;;;;;;;9.90;4.63;;;;;;;4.72;100.00;100263.06;5026771;28;20184;-68
2024/02/24 08:49:13;;;;;;;9.17;4.83;;;;;;;4.91;100.00;100252.97;5019144;28;20192;-68
2024/02/24 08:51:38;;;;;;;9.60;4.60;;;;;;;4.67;100.00;100222.91;5018281;28;20285;-68
2024/02/24 08:54:03;;;;;;;11.47;5.00;;;;;;;5.13;100.00;100315.97;5006319;28;20222;-68
2024/02/24 08:56:29;;;;;;;10.53;4.93;;;;;;;5.34;100.00;100365.84;5028574;28;20279;-68
2024/02/24 08:58:54;;;;;;;8.93;5.03;;;;;;;4.86;100.00;100263.28;5024154;28;20224;-69
2024/02/24 09:01:20;;;;;;;9.97;4.73;;;;;;;5.18;100.00;100302.97;5027134;28;25643;-69
2024/02/24 09:03:46;;;;;;;10.43;4.13;;;;;;;4.95;100.00;100302.13;5022621;28;20199;-68
2024/02/24 09:06:11;;;;;;;9.73;4.53;;;;;;;4.97;100.00;100286.81;5028226;28;20450;-68
2024/02/24 09:08:37;;;;;;;7.60;3.43;;;;;;;5.12;100.00;100281.56;5024370;28;20192;-68
2024/02/24 09:11:03;;;;;;;8.07;4.30;;;;;;;4.71;100.00;100236.66;5008403;28;20211;-68
2024/02/24 09:13:29;;;;;;;7.27;4.40;;;;;;;4.93;100.00;100248.31;5028192;28;20960;-68
2024/02/24 09:15:54;;;;;;;10.20;5.30;;;;;;;5.31;100.00;100330.81;5033549;28;20426;-68
2024/02/24 09:18:20;;;;;;;7.20;4.50;;;;;;;5.45;100.00;100335.34;5010078;28;20270;-69
2024/02/24 09:20:45;;;;;;;7.83;3.93;;;;;;;5.58;100.00;100359.53;5027625;28;20623;-69
2024/02/24 09:23:11;;;;;;;9.07;4.10;;;;;;;5.48;100.00;100307.56;5025239;28;20188;-69
2024/02/24 09:25:37;;;;;;;10.00;4.10;;;;;;;5.58;100.00;100334.75;5021756;28;20881;-69
2024/02/24 09:28:02;;;;;;;8.60;4.33;;;;;;;5.55;100.00;100343.09;5024711;28;20260;-68
2024/02/24 09:30:28;;;;;;;8.80;4.50;;;;;;;5.36;100.00;100329.28;5028437;28;20234;-69
2024/02/24 09:32:54;;;;;;;9.67;4.40;;;;;;;5.46;100.00;100291.78;5029607;28;20600;-69
2024/02/24 09:35:20;;;;;;;8.40;4.27;;;;;;;5.58;100.00;100332.09;5025875;28;20195;-68
2024/02/24 09:37:46;;;;;;;9.13;3.87;;;;;;;5.67;100.00;100341.69;5021784;28;20208;-69
2024/02/24 09:40:12;;;;;;;7.00;3.40;;;;;;;5.84;100.00;100377.78;5014045;28;20936;-69
2024/02/24 09:42:39;;;;;;;8.20;4.10;;;;;;;6.05;100.00;100390.44;5029379;28;20495;-69
2024/02/24 09:45:11;;;;;;;8.73;3.87;;;;;;;6.19;100.00;100414.63;5010733;28;20726;-69
2024/02/24 09:47:36;;;;;;;9.43;4.70;;;;;;;5.86;100.00;100373.09;5028075;28;20933;-69
2024/02/24 09:50:02;;;;;;;7.53;4.50;;;;;;;6.16;100.00;100407.81;5011807;28;20473;-69
2024/02/24 09:52:28;;;;;;;8.40;4.43;;;;;;;6.21;100.00;100432.06;5015051;28;20188;-69
2024/02/24 09:54:53;;;;;;;8.80;3.60;;;;;;;5.04;100.00;100332.97;5035000;28;20185;-69
2024/02/24 09:57:24;;;;;;;7.70;4.10;;;;;;;6.03;100.00;100506.94;5037273;28;20561;-69
2024/02/24 09:59:50;;;;;;;8.20;4.60;;;;;;;5.32;100.00;100406.91;5032156;28;20208;-68
2024/02/24 10:02:16;;;;;;;7.63;3.80;;;;;;;5.75;100.00;100460.53;5032662;28;20517;-69
2024/02/24 10:04:41;;;;;;;8.10;4.63;;;;;;;5.42;100.00;100399.53;5015569;28;20964;-69
2024/02/24 10:07:07;;;;;;;9.77;4.67;;;;;;;5.73;100.00;100415.47;5026880;28;20550;-69
2024/02/24 10:09:33;;;;;;;7.70;4.40;;;;;;;5.77;100.00;100461.19;5032926;28;20196;-69
2024/02/24 10:12:00;;;;;;;8.20;4.30;;;;;;;5.82;100.00;100461.50;5033647;28;20192;-69
2024/02/24 10:14:27;;;;;;;7.60;4.30;;;;;;;6.21;100.00;100561.75;5029172;28;20469;-69
2024/02/24 10:16:55;;;;;;;7.67;4.20;;;;;;;5.40;100.00;100422.81;5005916;28;20461;-69
2024/02/24 10:19:30;;;;;;;10.57;5.43;;;;;;;6.44;100.00;100559.09;5029973;28;20562;-69
2024/02/24 10:21:58;;;;;;;8.80;5.13;;;;;;;6.37;100.00;100588.28;5032917;28;20492;-69
2024/02/24 10:24:24;;;;;;;8.50;4.67;;;;;;;5.46;100.00;100467.34;5012011;28;20943;-69
2024/02/24 10:26:52;;;;;;;9.50;4.70;;;;;;;6.34;100.00;100552.16;5030246;28;20438;-69
2024/02/24 10:29:20;;;;;;;10.40;4.47;;;;;;;6.28;100.00;100544.88;5029613;28;20797;-68
2024/02/24 10:31:49;;;;;;;7.40;4.60;;;;;;;6.29;100.00;100567.03;5043904;22;20498;-73
2024/02/24 10:34:16;;;;;;;8.73;5.00;;;;;;;6.50;100.00;100588.50;5030793;28;20443;-74
2024/02/24 10:36:43;;;;;;;9.40;4.57;;;;;;;6.41;100.00;100575.44;5023853;28;20466;-73
2024/02/24 10:39:09;;;;;;;10.87;4.97;;;;;;;6.61;100.00;100600.59;5026023;28;20503;-74
2024/02/24 10:41:35;;;;;;;7.80;4.20;;;;;;;5.94;100.00;100533.81;5031468;28;20447;-74
2024/02/24 10:44:02;;;;;;;8.80;4.87;;;;;;;6.15;100.00;100570.44;5032470;28;20962;-74
2024/02/24 10:46:28;;;;;;;8.40;4.90;;;;;;;6.15;100.00;100551.81;5026859;28;20271;-74
2024/02/24 10:48:54;;;;;;;7.40;4.90;;;;;;;5.82;100.00;100491.59;5035147;28;20434;-74
2024/02/24 10:51:22;;;;;;;7.90;4.60;;;;;;;6.29;100.00;100545.72;5036065;28;20453;-74
2024/02/24 10:53:53;;;;;;;9.40;5.50;;;;;;;6.39;100.00;100588.91;5034074;28;20330;-74
2024/02/24 10:56:20;;;;;;;8.50;5.17;;;;;;;6.29;100.00;100606.97;5035502;28;20487;-74
2024/02/24 10:58:46;;;;;;;7.93;4.80;;;;;;;6.52;100.00;100593.66;5036052;28;20443;-74
2024/02/24 11:01:11;;;;;;;8.77;5.67;;;;;;;6.51;100.00;100587.50;5029319;28;20809;-73
2024/02/24 11:03:37;;;;;;;8.10;4.80;;;;;;;6.56;100.00;100577.13;5023650;28;20501;-73
2024/02/24 11:06:02;;;;;;;9.30;4.70;;;;;;;6.35;100.00;100542.34;5026488;28;20195;-74
2024/02/24 11:08:44;;;;;;;9.27;4.90;;;;;;;6.40;100.00;100573.78;5026833;28;20188;-73
2024/02/24 11:11:16;;;;;;;8.77;4.83;;;;;;;6.60;100.00;100632.75;5029216;28;20218;-73
2024/02/24 11:13:46;;;;;;;9.07;5.20;;;;;;;6.43;100.00;100650.69;5033011;28;20451;-73
2024/02/24 11:16:12;;;;;;;9.13;5.93;;;;;;;6.03;100.00;100610.78;5040786;28;20448;-73
2024/02/24 11:18:50;;;;;;;8.80;5.70;;;;;;;6.28;100.00;100632.78;5027785;28;20874;-74